Time;durP1;ratioP1;P1;durP2;ratioP2;P2;SDS_P1;SDS_P2;PMS_P1;PMS_P2;Temp;Humidity;BMP_temperature;BMP_pressure;BME280_temperature;BME280_humidity;BME280_pressure;Samples;Min_cycle;Max_cycle;Signal;HPM_P1;HPM_P2
2023/05/11 00:00:33;;;;;;;5.05;2.40;;;;;;;16.76;42.34;99200.56;4257322;33;33506;-88
2023/05/11 00:03:22;;;;;;;6.25;2.60;;;;;;;16.73;42.38;99200.56;4266121;33;33850;-89
2023/05/11 00:06:47;;;;;;;6.32;2.28;;;;;;;16.70;41.94;99200.59;4275422;33;34855;-87
2023/05/11 00:09:44;;;;;;;5.22;2.72;;;;;;;16.64;42.58;99195.44;4265304;33;33124;-89
2023/05/11 00:12:35;;;;;;;7.12;2.33;;;;;;;16.59;42.98;99194.63;4272110;33;33790;-87
2023/05/11 00:15:30;;;;;;;5.43;2.70;;;;;;;16.68;42.67;99199.75;4276086;33;33912;-90
2023/05/11 00:18:21;;;;;;;6.78;2.62;;;;;;;16.43;43.19;99191.31;4264646;33;33705;-88
2023/05/11 00:21:07;;;;;;;6.30;2.58;;;;;;;16.44;43.46;99191.31;4269285;33;33460;-90
2023/05/11 00:24:14;;;;;;;5.75;2.83;;;;;;;16.29;43.99;99200.19;4279679;33;34288;-89
2023/05/11 00:27:14;;;;;;;6.25;2.53;;;;;;;16.38;43.64;99193.13;4251636;33;34744;-87
2023/05/11 00:29:57;;;;;;;4.50;2.08;;;;;;;16.27;44.10;99193.22;4239678;33;33569;-90
2023/05/11 00:32:52;;;;;;;5.72;2.87;;;;;;;16.35;43.67;99195.75;4234093;33;33475;-87
2023/05/11 00:35:48;;;;;;;5.43;2.87;;;;;;;16.17;44.03;99199.41;4235661;33;33558;-89
2023/05/11 00:38:51;;;;;;;;;;;;;;;;;;;;;
2023/05/11 00:41:53;;;;;;;5.35;2.87;;;;;;;16.04;44.44;99186.44;4226018;33;34310;-86
2023/05/11 00:44:50;;;;;;;6.35;2.85;;;;;;;16.26;43.88;99183.66;4213685;33;35246;-89
2023/05/11 00:47:42;;;;;;;6.80;2.72;;;;;;;15.98;44.79;99186.50;4227052;33;34496;-86
2023/05/11 00:50:22;;;;;;;9.68;3.10;;;;;;;15.71;44.98;99184.13;4202286;33;34515;-86
2023/05/11 00:53:16;;;;;;;7.97;2.67;;;;;;;15.75;44.98;99186.69;4222643;33;33953;-86
2023/05/11 00:56:14;;;;;;;5.62;3.08;;;;;;;15.61;45.77;99187.63;4228550;33;33419;-86
2023/05/11 00:59:18;;;;;;;7.10;2.85;;;;;;;15.48;46.17;99192.94;4244394;33;33911;-87
2023/05/11 01:01:56;;;;;;;6.25;2.90;;;;;;;15.91;45.60;99186.56;4245317;33;33866;-90
2023/05/11 01:04:43;;;;;;;7.45;3.50;;;;;;;15.61;46.70;99182.41;4250459;33;34121;-86
2023/05/11 01:08:08;;;;;;;6.78;2.87;;;;;;;15.50;47.00;99188.59;4285200;33;33430;-85
2023/05/11 01:11:03;;;;;;;5.97;2.70;;;;;;;15.75;46.72;99184.06;4270237;33;33854;-89
2023/05/11 01:14:20;;;;;;;5.25;3.00;;;;;;;15.88;46.15;99182.25;4282061;33;34079;-90
2023/05/11 01:17:11;;;;;;;7.12;3.05;;;;;;;15.90;45.93;99184.84;4261723;33;33372;-86
2023/05/11 01:19:54;;;;;;;5.90;2.80;;;;;;;15.97;45.43;99183.91;4281037;33;33671;-88
2023/05/11 01:22:38;;;;;;;6.60;3.00;;;;;;;15.85;45.77;99176.16;4268145;33;34428;-90
2023/05/11 01:25:49;;;;;;;6.90;2.90;;;;;;;15.78;46.33;99175.34;4270787;33;34312;-86
2023/05/11 01:28:58;;;;;;;6.65;3.17;;;;;;;15.98;45.70;99175.16;4275648;33;33447;-86
2023/05/11 01:31:58;;;;;;;5.80;3.08;;;;;;;16.03;45.27;99168.19;4264249;33;35619;-86
2023/05/11 01:34:43;;;;;;;6.25;3.05;;;;;;;16.13;45.30;99172.41;4260956;33;33632;-89
2023/05/11 01:37:46;;;;;;;6.07;2.67;;;;;;;15.82;45.97;99171.81;4282903;33;34258;-90
2023/05/11 01:40:35;;;;;;;6.93;3.50;;;;;;;15.98;45.86;99173.41;4259973;33;33743;-87
2023/05/11 01:43:32;;;;;;;7.55;2.97;;;;;;;15.99;46.00;99180.41;4268186;33;33988;-88
2023/05/11 01:46:25;;;;;;;6.68;3.53;;;;;;;15.94;46.49;99176.09;4275456;33;34019;-90
2023/05/11 01:49:08;;;;;;;5.05;2.92;;;;;;;15.83;46.43;99168.31;4269526;33;33695;-90
2023/05/11 01:52:12;;;;;;;6.37;3.20;;;;;;;15.91;45.91;99177.00;4269219;33;33640;-85
2023/05/11 01:55:04;;;;;;;5.90;2.78;;;;;;;15.90;46.41;99174.38;4281988;33;33404;-88
2023/05/11 01:57:43;;;;;;;8.32;3.45;;;;;;;15.90;46.45;99170.00;4265281;33;33742;-90
2023/05/11 02:00:30;;;;;;;4.85;2.83;;;;;;;15.93;46.43;99167.38;4272547;33;34873;-89
2023/05/11 02:03:40;;;;;;;5.37;2.90;;;;;;;15.90;46.53;99170.00;4266948;33;33977;-85
2023/05/11 02:06:26;;;;;;;6.07;2.92;;;;;;;15.95;46.35;99168.25;4283142;33;33842;-90
2023/05/11 02:09:11;;;;;;;7.45;3.12;;;;;;;15.57;46.66;99169.38;4269193;33;33782;-89
2023/05/11 02:11:57;;;;;;;6.12;2.87;;;;;;;15.67;46.97;99166.72;4267577;33;34490;-86
2023/05/11 02:15:07;;;;;;;6.62;3.20;;;;;;;15.79;46.39;99166.62;4272179;33;34007;-88
2023/05/11 02:17:50;;;;;;;7.90;2.60;;;;;;;15.46;46.44;99163.37;4282012;33;33633;-86
2023/05/11 02:20:58;;;;;;;7.60;2.75;;;;;;;15.52;46.09;99152.84;4270018;33;33478;-86
2023/05/11 02:26:42;;;;;;;6.12;2.95;;;;;;;15.55;46.91;99157.19;4275700;33;35194;-89
2023/05/11 02:29:39;;;;;;;7.22;2.72;;;;;;;15.67;45.54;99157.13;4274058;33;35091;-86
2023/05/11 02:32:19;;;;;;;6.03;2.55;;;;;;;15.83;46.20;99157.88;4269280;33;34272;-86
2023/05/11 02:35:31;;;;;;;7.22;2.75;;;;;;;15.75;46.13;99144.88;4255328;33;34109;-87
2023/05/11 02:38:16;;;;;;;7.03;2.78;;;;;;;15.68;46.42;99145.81;4278004;33;33924;-86
2023/05/11 02:41:11;;;;;;;5.70;2.78;;;;;;;15.78;46.12;99155.31;4270872;33;33169;-90
2023/05/11 02:44:02;;;;;;;6.53;3.03;;;;;;;15.71;45.98;99147.53;4267912;33;33443;-86
2023/05/11 02:46:43;;;;;;;5.65;3.00;;;;;;;15.53;46.55;99146.78;4273632;33;33961;-89
2023/05/11 02:49:39;;;;;;;6.57;3.40;;;;;;;15.80;45.79;99143.09;4259147;33;34671;-89
2023/05/11 02:52:23;;;;;;;5.70;3.50;;;;;;;15.84;45.86;99136.09;4272112;33;34516;-87
2023/05/11 02:55:10;;;;;;;6.00;3.00;;;;;;;15.41;47.04;99136.41;4272366;33;33868;-90
2023/05/11 02:57:57;;;;;;;6.97;3.05;;;;;;;15.38;46.97;99138.16;4270810;33;33727;-89
2023/05/11 03:00:51;;;;;;;5.25;2.75;;;;;;;15.53;46.67;99138.94;4260917;33;33688;-87
2023/05/11 03:03:34;;;;;;;5.00;2.62;;;;;;;15.25;47.00;99142.59;4281991;33;32590;-88
2023/05/11 03:06:10;;;;;;;5.47;2.95;;;;;;;15.20;47.04;99149.63;4270723;33;33358;-89
2023/05/11 03:09:08;;;;;;;5.90;3.25;;;;;;;15.20;47.29;99144.41;4277156;33;33698;-86
2023/05/11 03:12:02;;;;;;;5.65;3.17;;;;;;;15.14;47.00;99152.25;4271712;33;34496;-85
2023/05/11 03:15:04;;;;;;;6.35;3.08;;;;;;;14.94;47.54;99149.75;4274937;33;33824;-87
2023/05/11 03:17:42;;;;;;;6.72;3.47;;;;;;;14.96;47.75;99154.06;4274642;33;33472;-90
2023/05/11 03:20:16;;;;;;;6.25;3.05;;;;;;;14.84;48.47;99146.31;4270637;33;34155;-88
2023/05/11 03:23:06;;;;;;;7.53;3.10;;;;;;;14.67;48.36;99148.16;4281371;33;33564;-87
2023/05/11 03:25:46;;;;;;;9.00;3.85;;;;;;;14.39;48.86;99158.62;4290154;33;33546;-86
2023/05/11 03:28:40;;;;;;;5.82;3.10;;;;;;;14.56;48.27;99154.25;4276819;33;33689;-88
2023/05/11 03:31:24;;;;;;;7.72;3.30;;;;;;;14.75;47.70;99148.97;4282686;33;34761;-89
2023/05/11 03:34:15;;;;;;;5.55;3.00;;;;;;;14.76;47.67;99155.94;4277724;33;34059;-86
2023/05/11 03:37:20;;;;;;;5.78;3.00;;;;;;;14.71;47.98;99149.88;4271885;33;33287;-89
2023/05/11 03:40:03;;;;;;;7.57;2.90;;;;;;;14.54;48.44;99157.75;4281611;33;33795;-86
2023/05/11 03:43:08;;;;;;;4.97;2.85;;;;;;;14.89;47.32;99159.34;4270772;33;33988;-87
2023/05/11 03:46:04;;;;;;;7.70;3.33;;;;;;;14.71;47.97;99153.34;4270979;33;33719;-86
2023/05/11 03:48:59;;;;;;;5.20;2.90;;;;;;;14.44;48.28;99159.50;4281655;33;33234;-85
2023/05/11 03:51:47;;;;;;;6.55;3.10;;;;;;;14.60;48.20;99156.00;4265292;33;34111;-86
2023/05/11 03:54:24;;;;;;;5.15;3.08;;;;;;;14.60;48.33;99161.22;4280152;33;33608;-86
2023/05/11 03:57:34;;;;;;;5.78;3.28;;;;;;;14.62;48.38;99155.97;4280374;33;34511;-87
2023/05/11 04:00:20;;;;;;;6.53;2.92;;;;;;;14.58;48.76;99160.34;4271745;33;33282;-89
2023/05/11 04:03:28;;;;;;;5.75;2.95;;;;;;;14.75;48.46;99167.25;4267665;33;33540;-89
2023/05/11 04:07:03;;;;;;;7.53;3.40;;;;;;;14.76;49.10;99163.75;4200472;34;34651;-85
2023/05/11 04:09:56;;;;;;;5.87;3.05;;;;;;;14.77;48.44;99161.16;4212924;33;34039;-90
2023/05/11 04:12:47;;;;;;;5.12;2.85;;;;;;;14.72;47.69;99160.28;4201663;33;34893;-88
2023/05/11 04:15:46;;;;;;;6.57;3.35;;;;;;;14.56;47.05;99169.06;4194321;33;34419;-87
2023/05/11 04:18:54;;;;;;;6.80;2.83;;;;;;;14.82;46.61;99163.75;4194670;33;34305;-88
2023/05/11 04:21:50;;;;;;;6.40;3.00;;;;;;;15.17;45.29;99167.91;4207053;33;33961;-89
2023/05/11 04:24:48;;;;;;;4.62;2.67;;;;;;;14.72;45.81;99162.03;4252157;33;33125;-90
2023/05/11 04:28:03;;;;;;;5.78;2.65;;;;;;;14.41;46.68;99166.47;4283863;33;35000;-88
2023/05/11 04:30:57;;;;;;;5.82;2.90;;;;;;;14.48;46.97;99178.63;4283134;33;33668;-85
2023/05/11 04:33:46;;;;;;;6.35;2.78;;;;;;;14.19;47.35;99173.47;4272888;33;34096;-86
2023/05/11 04:37:22;;;;;;;7.07;2.95;;;;;;;14.35;47.01;99172.53;4252342;33;33528;-85
2023/05/11 04:41:26;;;;;;;4.97;2.90;;;;;;;13.99;47.88;99178.69;4186194;33;34518;-89
2023/05/11 04:44:46;;;;;;;;;;;;;;;14.28;47.31;99183.84;4241999;33;34405;-85
2023/05/11 04:48:25;;;;;;;7.97;3.10;;;;;;;14.39;46.95;99179.50;4247186;33;34263;-84
2023/05/11 04:51:29;;;;;;;5.05;2.97;;;;;;;14.85;46.35;99182.00;4243649;33;32703;-89
2023/05/11 04:54:57;;;;;;;6.30;3.12;;;;;;;15.46;45.08;99186.88;4251420;33;34669;-89
2023/05/11 04:58:31;;;;;;;7.25;3.30;;;;;;;15.55;44.98;99178.97;4240612;33;34212;-87
2023/05/11 05:02:03;;;;;;;6.15;3.08;;;;;;;15.59;45.02;99182.44;4239677;33;33845;-87
2023/05/11 05:05:01;;;;;;;8.52;3.47;;;;;;;15.58;44.91;99178.09;4259531;33;35682;-87
2023/05/11 05:08:02;;;;;;;7.43;3.92;;;;;;;15.83;44.39;99184.00;4253838;33;33848;-90
2023/05/11 05:11:09;;;;;;;9.07;3.72;;;;;;;16.08;44.35;99175.97;4248985;33;34082;-86
2023/05/11 05:14:42;;;;;;;6.20;2.85;;;;;;;15.89;44.95;99185.72;4241830;33;34263;-92
2023/05/11 05:17:57;;;;;;;7.57;3.75;;;;;;;16.53;44.33;99179.88;4230747;33;35249;-90
2023/05/11 05:21:06;;;;;;;8.37;3.93;;;;;;;16.63;43.05;99188.47;4239789;33;33576;-88
2023/05/11 05:23:52;;;;;;;12.43;3.60;;;;;;;16.82;43.29;99184.81;4239190;33;34884;-87
2023/05/11 05:26:52;;;;;;;7.97;3.65;;;;;;;16.98;42.52;99186.34;4226507;33;35183;-85
2023/05/11 05:29:48;;;;;;;7.62;3.75;;;;;;;17.51;41.76;99184.72;4234932;33;34270;-85
2023/05/11 05:32:34;;;;;;;7.57;3.30;;;;;;;17.71;40.53;99186.16;4238832;33;33840;-91
2023/05/11 05:35:17;;;;;;;10.60;3.80;;;;;;;17.51;41.60;99191.72;4245218;33;34389;-86
2023/05/11 05:37:58;;;;;;;8.73;3.00;;;;;;;17.15;39.75;99191.34;4249545;33;33545;-86
2023/05/11 05:40:41;;;;;;;7.15;3.67;;;;;;;16.40;41.36;99194.84;4237964;33;33237;-87
2023/05/11 05:43:23;;;;;;;6.32;3.22;;;;;;;16.46;40.71;99200.00;4252144;33;34479;-88
2023/05/11 05:46:03;;;;;;;9.88;3.47;;;;;;;16.15;41.10;99206.41;4264872;33;33951;-87
2023/05/11 05:48:46;;;;;;;7.65;3.37;;;;;;;16.03;41.34;99205.66;4245435;33;33987;-87
2023/05/11 05:51:33;;;;;;;7.43;3.22;;;;;;;16.78;40.18;99198.78;4254460;33;33485;-87
2023/05/11 05:54:19;;;;;;;7.53;3.72;;;;;;;16.12;41.50;99206.44;4265925;33;33559;-88
2023/05/11 05:57:05;;;;;;;7.15;3.33;;;;;;;16.58;40.51;99206.84;4254987;33;33931;-87
2023/05/11 05:59:44;;;;;;;6.53;2.72;;;;;;;16.93;41.25;99202.97;4245677;33;33585;-85
2023/05/11 06:02:47;;;;;;;8.02;3.83;;;;;;;16.89;40.74;99201.28;4248611;33;33189;-84
2023/05/11 06:05:33;;;;;;;6.03;2.87;;;;;;;17.15;40.43;99198.34;4275121;33;34338;-86
2023/05/11 06:08:01;;;;;;;5.97;3.42;;;;;;;17.34;39.85;99194.56;4265544;33;34771;-86
2023/05/11 06:10:39;;;;;;;6.97;3.33;;;;;;;17.59;39.20;99202.09;4266280;33;34262;-86
2023/05/11 06:13:16;;;;;;;7.78;3.42;;;;;;;17.75;39.41;99199.22;4267971;33;33404;-87
2023/05/11 06:15:48;;;;;;;10.35;3.45;;;;;;;17.64;39.25;99197.62;4279426;33;33942;-89
2023/05/11 06:18:19;;;;;;;9.38;3.10;;;;;;;17.26;39.92;99199.91;4267382;33;33826;-86
2023/05/11 06:20:58;;;;;;;11.93;3.47;;;;;;;17.63;40.44;99206.41;4291852;33;33765;-86
2023/05/11 06:23:41;;;;;;;20.70;4.62;;;;;;;17.48;39.31;99203.09;4268766;33;33156;-86
2023/05/11 06:26:14;;;;;;;8.93;2.97;;;;;;;17.45;39.53;99204.91;4267428;33;34417;-86
2023/05/11 06:28:51;;;;;;;7.87;3.20;;;;;;;17.76;39.12;99197.47;4256883;33;34379;-88
2023/05/11 06:31:23;;;;;;;10.65;3.42;;;;;;;17.91;39.68;99205.09;4255881;33;34573;-88
2023/05/11 06:33:54;;;;;;;7.90;3.35;;;;;;;17.16;40.96;99200.94;4267313;33;33977;-86
2023/05/11 06:36:32;;;;;;;9.15;3.67;;;;;;;17.35;41.33;99201.56;4276708;33;34386;-86
2023/05/11 06:39:11;;;;;;;9.18;3.05;;;;;;;17.33;41.07;99207.72;4271467;33;33953;-86
2023/05/11 06:41:42;;;;;;;7.68;3.42;;;;;;;17.34;40.91;99205.06;4292884;33;33737;-87
2023/05/11 06:44:17;;;;;;;11.77;3.58;;;;;;;16.60;40.73;99204.22;4293298;33;34179;-86
2023/05/11 06:46:49;;;;;;;9.38;3.78;;;;;;;16.70;41.18;99200.59;4292880;33;34345;-88
2023/05/11 06:49:23;;;;;;;6.85;3.17;;;;;;;16.96;41.60;99202.94;4304646;33;34279;-87
2023/05/11 06:51:52;;;;;;;7.05;3.35;;;;;;;16.97;41.46;99204.66;4292628;33;33682;-86
2023/05/11 06:54:28;;;;;;;8.30;3.45;;;;;;;17.06;41.13;99201.09;4293108;33;34147;-87
2023/05/11 06:56:59;;;;;;;15.85;3.95;;;;;;;17.59;40.98;99199.47;4304338;33;33435;-87
2023/05/11 06:59:44;;;;;;;21.30;4.18;;;;;;;17.26;40.51;99191.19;4294230;33;34654;-86
2023/05/11 07:02:16;;;;;;;7.93;2.92;;;;;;;17.62;40.40;99204.66;4293063;33;34518;-86
2023/05/11 07:04:49;;;;;;;5.10;2.70;;;;;;;17.44;40.12;99193.56;4292728;33;32684;-87
2023/05/11 07:07:23;;;;;;;8.63;2.95;;;;;;;17.14;40.30;99196.59;4292620;33;33504;-87
2023/05/11 07:10:01;;;;;;;9.13;3.03;;;;;;;17.82;40.29;99186.03;4304408;33;34468;-87
2023/05/11 07:12:38;;;;;;;13.80;3.72;;;;;;;17.57;40.67;99185.50;4304130;33;34458;-88
2023/05/11 07:15:15;;;;;;;10.07;3.30;;;;;;;18.64;38.92;99191.56;4304424;33;33561;-87
2023/05/11 07:17:52;;;;;;;6.32;2.90;;;;;;;18.34;37.93;99180.75;4304702;33;33750;-87
2023/05/11 07:20:27;;;;;;;7.47;2.95;;;;;;;18.56;37.60;99188.19;4293041;33;34938;-87
2023/05/11 07:22:59;;;;;;;8.50;2.58;;;;;;;18.60;38.64;99187.25;4292495;33;34620;-87
2023/05/11 07:25:37;;;;;;;7.30;3.45;;;;;;;18.63;38.13;99189.81;4303895;33;33450;-87
2023/05/11 07:28:18;;;;;;;7.78;3.25;;;;;;;18.52;36.80;99186.53;4292573;33;33893;-87
2023/05/11 07:30:51;;;;;;;10.27;3.03;;;;;;;18.61;37.08;99183.75;4281523;33;34529;-87
2023/05/11 07:33:29;;;;;;;6.82;3.12;;;;;;;18.08;37.94;99182.97;4304275;33;33718;-88
2023/05/11 07:36:12;;;;;;;7.10;2.95;;;;;;;17.89;38.22;99180.66;4303443;33;136757;-87
2023/05/11 07:38:42;;;;;;;5.00;2.58;;;;;;;18.20;38.62;99185.37;4305223;33;33878;-87
2023/05/11 07:41:26;;;;;;;10.45;2.92;;;;;;;18.27;37.77;99183.50;4305638;33;33775;-89
2023/05/11 07:44:06;;;;;;;7.22;3.05;;;;;;;18.08;37.62;99177.72;4304806;33;33800;-89
2023/05/11 07:46:37;;;;;;;7.95;2.90;;;;;;;18.69;38.32;99177.44;4304733;33;33280;-89
2023/05/11 07:49:09;;;;;;;10.90;3.17;;;;;;;18.33;37.71;99179.00;4304611;33;33643;-88
2023/05/11 07:51:51;;;;;;;5.75;2.47;;;;;;;18.68;37.96;99175.72;4314835;33;34557;-88
2023/05/11 07:54:25;;;;;;;6.12;2.40;;;;;;;18.84;35.44;99184.19;4293270;33;34039;-88
2023/05/11 07:57:04;;;;;;;7.95;2.90;;;;;;;18.17;37.04;99178.41;4304661;33;34594;-89
2023/05/11 07:59:39;;;;;;;4.50;2.05;;;;;;;18.84;36.15;99178.91;4304350;33;34387;-88
2023/05/11 08:02:12;;;;;;;5.30;2.55;;;;;;;19.08;35.54;99177.53;4292882;33;33787;-88
2023/05/11 08:04:47;;;;;;;8.88;2.22;;;;;;;19.51;35.16;99167.81;4304630;33;33847;-88
2023/05/11 08:07:25;;;;;;;6.28;3.08;;;;;;;19.25;35.25;99173.69;4293129;33;32973;-88
2023/05/11 08:09:54;;;;;;;5.00;2.37;;;;;;;19.29;35.35;99183.22;4292671;33;33871;-88
2023/05/11 08:12:26;;;;;;;6.00;2.65;;;;;;;19.18;34.78;99178.22;4292714;33;34275;-89
2023/05/11 08:14:56;;;;;;;9.93;2.50;;;;;;;19.15;36.24;99188.78;4304292;33;34716;-88
2023/05/11 08:17:27;;;;;;;6.57;2.50;;;;;;;19.35;34.72;99178.69;4292973;33;33840;-89
2023/05/11 08:20:09;;;;;;;6.25;2.25;;;;;;;19.39;35.87;99180.34;4304348;33;34575;-88
2023/05/11 08:22:43;;;;;;;9.32;3.10;;;;;;;19.20;36.23;99174.62;4304380;33;34505;-91
2023/05/11 08:25:15;;;;;;;6.70;2.67;;;;;;;19.13;35.32;99167.81;4292779;33;34558;-89
2023/05/11 08:28:05;;;;;;;5.20;2.53;;;;;;;19.38;35.01;99162.84;4281299;33;33186;-86
2023/05/11 08:30:43;;;;;;;5.78;2.42;;;;;;;19.74;34.78;99165.56;4304658;33;34299;-87
2023/05/11 08:33:12;;;;;;;6.72;2.55;;;;;;;19.58;34.63;99158.88;4304647;33;34166;-87
2023/05/11 08:35:52;;;;;;;6.18;2.58;;;;;;;19.43;34.82;99158.38;4293038;33;33652;-86
2023/05/11 08:38:24;;;;;;;6.12;2.80;;;;;;;19.74;34.92;99144.50;4292624;33;33429;-88
2023/05/11 08:40:55;;;;;;;4.53;2.45;;;;;;;19.31;35.69;99150.72;4292699;33;33923;-87
2023/05/11 08:43:28;;;;;;;7.97;2.53;;;;;;;19.05;36.30;99148.69;4292642;33;33999;-87
2023/05/11 08:46:06;;;;;;;6.03;1.95;;;;;;;19.06;36.16;99152.22;4304264;33;33829;-87
2023/05/11 08:48:44;;;;;;;6.37;2.28;;;;;;;19.48;35.31;99146.87;4304436;33;33737;-86
2023/05/11 08:51:18;;;;;;;4.68;1.95;;;;;;;19.80;34.60;99128.53;4292637;33;34411;-88
2023/05/11 08:53:58;;;;;;;6.60;2.70;;;;;;;19.81;34.60;99138.19;4292587;33;34377;-87
2023/05/11 08:56:33;;;;;;;5.93;2.78;;;;;;;19.87;34.63;99139.78;4281667;33;33730;-86
2023/05/11 08:59:05;;;;;;;4.35;1.90;;;;;;;19.38;34.45;99146.22;4304788;33;33501;-88
2023/05/11 09:01:42;;;;;;;4.68;1.80;;;;;;;20.00;34.21;99124.53;4292942;33;34655;-86
2023/05/11 09:04:26;;;;;;;7.28;2.10;;;;;;;20.26;33.81;99135.25;4314913;33;35213;-87
2023/05/11 09:07:11;;;;;;;5.72;2.40;;;;;;;20.97;32.17;99130.63;4304322;33;34666;-87
2023/05/11 09:09:41;;;;;;;6.72;2.78;;;;;;;20.80;32.34;99128.50;4303652;33;34073;-87
2023/05/11 09:12:13;;;;;;;7.50;2.33;;;;;;;20.40;32.83;99141.00;4304072;33;34161;-88
2023/05/11 09:14:48;;;;;;;4.70;1.70;;;;;;;20.59;32.35;99119.44;4304432;33;34085;-87
2023/05/11 09:17:18;;;;;;;;;;;;;;;20.72;32.08;99122.56;4292873;33;33992;-87
2023/05/11 09:20:10;;;;;;;6.65;2.12;;;;;;;20.54;31.95;99122.22;4292815;33;33436;-87
2023/05/11 09:22:52;;;;;;;6.00;2.00;;;;;;;20.24;32.24;99113.38;4292459;33;33911;-87
2023/05/11 09:25:25;;;;;;;5.20;2.15;;;;;;;20.14;32.40;99125.03;4289001;33;35515;-86
2023/05/11 09:28:02;;;;;;;5.55;1.90;;;;;;;20.59;31.81;99114.19;4266010;33;33825;-87
2023/05/11 09:30:37;;;;;;;3.85;1.87;;;;;;;20.84;31.70;99107.28;4278268;33;33310;-87
2023/05/11 09:33:20;;;;;;;6.62;2.12;;;;;;;21.12;30.89;99088.84;4267354;33;34111;-88
2023/05/11 09:35:51;;;;;;;9.68;2.12;;;;;;;21.00;30.86;99115.59;4265757;33;34557;-86
2023/05/11 09:38:26;;;;;;;5.60;1.92;;;;;;;20.65;30.68;99108.75;4265737;33;33307;-86
2023/05/11 09:40:59;;;;;;;7.07;1.92;;;;;;;20.93;30.65;99092.97;4265207;33;33891;-89
2023/05/11 09:43:37;;;;;;;26.77;6.37;;;;;;;21.16;31.62;99094.87;4276932;33;34321;-87
2023/05/11 09:46:22;;;;;;;10.45;2.92;;;;;;;21.44;29.36;99101.94;4265795;33;33831;-87
2023/05/11 09:49:00;;;;;;;12.18;4.07;;;;;;;21.53;28.87;99093.75;4267695;33;34393;-88
2023/05/11 09:51:39;;;;;;;12.23;2.80;;;;;;;21.41;28.43;99096.78;4266750;33;33315;-87
2023/05/11 09:54:18;;;;;;;18.23;4.00;;;;;;;21.53;28.44;99099.88;4259555;33;34371;-86
2023/05/11 09:56:55;;;;;;;5.95;1.80;;;;;;;21.11;28.15;99091.53;4281380;33;34005;-86
2023/05/11 09:59:38;;;;;;;3.85;1.65;;;;;;;21.46;28.24;99092.22;4290405;33;34253;-86
2023/05/11 10:02:17;;;;;;;;;;;;;;;21.53;28.59;99083.19;4280448;33;33540;-86
2023/05/11 10:05:01;;;;;;;9.73;1.67;;;;;;;21.61;29.45;99071.47;4293536;33;34071;-85
2023/05/11 10:07:39;;;;;;;4.07;1.50;;;;;;;21.48;28.62;99086.00;4281933;33;34928;-85
2023/05/11 10:10:11;;;;;;;5.65;1.50;;;;;;;21.70;27.89;99074.69;4289880;33;35048;-86
2023/05/11 10:12:41;;;;;;;3.47;1.33;;;;;;;21.57;26.60;99063.72;4294717;33;33040;-84
2023/05/11 10:15:24;;;;;;;4.28;1.70;;;;;;;22.17;27.94;99069.59;4271167;33;34199;-84
2023/05/11 10:18:05;;;;;;;4.30;1.25;;;;;;;21.73;26.87;99072.81;4273079;33;33954;-86
2023/05/11 10:20:48;;;;;;;5.50;1.60;;;;;;;21.13;27.25;99073.88;4280061;33;33804;-86
2023/05/11 10:23:32;;;;;;;4.65;1.40;;;;;;;21.26;27.85;99080.50;4265242;33;32788;-85
2023/05/11 10:26:21;;;;;;;5.30;1.55;;;;;;;21.82;28.19;99071.63;4278568;33;34072;-88
2023/05/11 10:29:12;;;;;;;3.55;1.20;;;;;;;21.76;27.71;99072.72;4265528;33;34318;-84
2023/05/11 10:31:49;;;;;;;5.18;1.62;;;;;;;21.08;27.42;99055.59;4269468;33;33382;-90
2023/05/11 10:34:22;;;;;;;3.92;1.30;;;;;;;21.06;28.24;99073.25;4274534;33;33114;-87
2023/05/11 10:37:10;;;;;;;4.03;1.50;;;;;;;21.49;29.20;99065.75;4284024;33;34526;-91
2023/05/11 10:39:59;;;;;;;4.87;1.67;;;;;;;21.76;27.67;99067.44;4284563;33;33829;-89
2023/05/11 10:43:10;;;;;;;6.68;1.40;;;;;;;21.54;27.40;99066.44;4295418;33;33888;-90
2023/05/11 10:46:17;;;;;;;;;;;;;;;;;;;;;
2023/05/11 10:49:40;;;;;;;3.30;1.45;;;;;;;21.33;28.73;99044.31;4268762;33;34200;-87
2023/05/11 10:52:53;;;;;;;7.43;1.42;;;;;;;21.86;27.75;99060.94;4283349;33;33984;-85
2023/05/11 10:56:02;;;;;;;2.85;1.40;;;;;;;21.35;27.60;99061.78;4295104;33;33952;-86
2023/05/11 10:59:21;;;;;;;3.60;1.48;;;;;;;21.26;26.78;99053.28;4286470;33;32915;-89
2023/05/11 11:02:11;;;;;;;4.00;1.60;;;;;;;21.29;28.10;99048.78;4287635;33;33623;-85
2023/05/11 11:05:14;;;;;;;;;;;;;;;;;;;;;
2023/05/11 11:08:41;;;;;;;4.87;2.17;;;;;;;20.27;31.20;99050.09;4296301;33;33571;-90
2023/05/11 11:11:56;;;;;;;;;;;;;;;;;;;;;
2023/05/11 11:16:04;;;;;;;4.57;1.95;;;;;;;20.83;31.06;99055.47;4282641;33;33835;-88
2023/05/11 11:19:37;;;;;;;6.87;1.50;;;;;;;20.59;29.57;99040.44;4284522;33;34591;-89
2023/05/11 11:23:18;;;;;;;4.18;1.42;;;;;;;20.38;29.53;99050.66;4237744;33;35172;-89
2023/05/11 11:27:39;;;;;;;;;;;;;;;;;;;;;
2023/05/11 11:35:24;;;;;;;5.75;1.77;;;;;;;20.32;29.49;99037.66;4267327;33;34204;-89
2023/05/11 11:39:13;;;;;;;;;;;;;;;;;;;;;
2023/05/11 11:42:43;;;;;;;4.53;1.65;;;;;;;21.22;28.16;99020.88;4243136;33;33090;-90
2023/05/11 11:54:02;;;;;;;3.17;1.20;;;;;;;20.92;28.79;99028.00;4249879;33;33752;-88
2023/05/11 11:57:51;;;;;;;3.62;1.35;;;;;;;20.99;27.94;99033.94;4265152;33;33870;-88
2023/05/11 12:00:26;;;;;;;4.53;1.80;;;;;;;21.06;28.41;99022.28;4254954;33;33879;-87
2023/05/11 12:06:10;;;;;;;;;;;;;;;;;;;;;
2023/05/11 12:10:00;;;;;;;10.75;2.00;;;;;;;22.02;27.80;99028.72;4259640;33;34302;-88
2023/05/11 12:12:45;;;;;;;6.75;1.60;;;;;;;21.79;27.94;99026.91;4266592;33;33661;-88
2023/05/11 12:15:35;;;;;;;6.37;2.15;;;;;;;21.14;27.73;98996.56;4257735;33;34140;-89
2023/05/11 12:18:43;;;;;;;6.25;2.30;;;;;;;21.28;28.03;99004.84;4264337;33;34240;-87
2023/05/11 12:21:43;;;;;;;3.80;1.45;;;;;;;21.13;27.42;99005.34;4270164;33;33156;-90
2023/05/11 12:24:25;;;;;;;3.55;1.30;;;;;;;21.08;26.76;99002.87;4297677;33;34377;-88
2023/05/11 12:27:10;;;;;;;6.15;1.40;;;;;;;21.37;27.75;99020.41;4273754;33;34409;-90
2023/05/11 12:30:26;;;;;;;5.40;1.67;;;;;;;21.61;27.37;99012.56;4287579;33;34115;-89
2023/05/11 12:33:57;;;;;;;6.30;1.70;;;;;;;22.17;27.59;98999.16;4280205;33;32758;-88
2023/05/11 12:36:51;;;;;;;5.43;1.40;;;;;;;21.74;26.16;99007.72;4273286;33;34042;-89
2023/05/11 12:40:05;;;;;;;3.70;1.20;;;;;;;21.06;26.40;98975.72;4281533;33;33817;-90
2023/05/11 12:43:05;;;;;;;4.25;1.20;;;;;;;21.46;26.90;98992.84;4285743;33;33911;-89
2023/05/11 12:46:07;;;;;;;3.95;1.37;;;;;;;22.07;26.76;98976.59;4277034;33;33087;-88
2023/05/11 12:48:41;;;;;;;4.65;1.58;;;;;;;22.24;27.10;98965.47;4279332;33;35025;-88
2023/05/11 12:52:09;;;;;;;7.78;1.50;;;;;;;21.70;25.74;98985.00;4257886;33;35202;-89
2023/05/11 12:54:58;;;;;;;5.97;1.75;;;;;;;21.82;26.63;98974.00;4277925;33;34277;-89
2023/05/11 12:57:50;;;;;;;5.28;1.70;;;;;;;21.58;26.87;98979.22;4275665;33;33511;-88
2023/05/11 13:00:32;;;;;;;3.55;1.37;;;;;;;21.79;27.20;98974.13;4269841;33;33888;-88
2023/05/11 13:03:37;;;;;;;3.78;1.40;;;;;;;21.79;26.65;98972.34;4258873;33;34549;-91
2023/05/11 13:06:42;;;;;;;3.28;1.23;;;;;;;21.63;27.63;98981.72;4239929;33;35029;-89
2023/05/11 13:09:46;;;;;;;8.88;1.58;;;;;;;21.87;26.42;98961.50;4241420;33;33170;-91
2023/05/11 13:12:30;;;;;;;2.47;1.35;;;;;;;21.45;27.81;98958.63;4240673;33;33944;-89
2023/05/11 13:15:24;;;;;;;3.33;1.70;;;;;;;21.60;28.50;98952.81;4242466;33;34421;-89
2023/05/11 13:18:21;;;;;;;6.25;1.62;;;;;;;21.62;27.97;98962.38;4251100;33;33777;-90
2023/05/11 13:21:31;;;;;;;4.30;1.48;;;;;;;21.32;27.41;98964.28;4246314;33;32804;-87
2023/05/11 13:24:25;;;;;;;4.25;1.50;;;;;;;21.25;28.40;98946.06;4242072;33;34248;-87
2023/05/11 13:27:21;;;;;;;2.72;1.27;;;;;;;21.48;27.38;98948.84;4241419;33;33920;-88
2023/05/11 13:30:00;;;;;;;3.28;1.60;;;;;;;21.17;27.96;98951.59;4241218;33;34576;-88
2023/05/11 13:33:15;;;;;;;4.55;1.83;;;;;;;21.55;27.89;98949.47;4232249;33;33535;-87
2023/05/11 13:36:39;;;;;;;4.75;1.50;;;;;;;21.12;27.80;98945.62;4214366;34;35541;-87
2023/05/11 13:39:42;;;;;;;6.53;1.40;;;;;;;21.18;28.32;98956.00;4198980;34;34082;-89
2023/05/11 13:42:42;;;;;;;6.00;1.58;;;;;;;21.25;28.47;98938.16;4222594;34;34668;-90
2023/05/11 13:45:38;;;;;;;5.15;1.60;;;;;;;21.55;27.83;98938.91;4194064;34;33604;-92
2023/05/11 13:48:30;;;;;;;3.45;1.50;;;;;;;21.35;27.88;98937.84;4252734;33;34503;-93
2023/05/11 13:51:24;;;;;;;4.53;1.60;;;;;;;21.24;28.55;98945.22;4230196;33;33438;-93
2023/05/11 13:54:31;;;;;;;4.43;1.67;;;;;;;21.26;28.09;98932.84;4240510;33;34011;-92